createdAt,value
2018-11-21T00:00:37.213Z,26.97
2018-11-21T00:03:06.833Z,27.30
2018-11-21T00:05:36.379Z,29.00
2018-11-21T00:08:06.191Z,28.33
2018-11-21T00:10:35.959Z,26.77
2018-11-21T00:13:05.998Z,26.50
2018-11-21T00:15:35.626Z,22.83
2018-11-21T00:18:06.040Z,25.30
2018-11-21T00:20:35.946Z,24.53
2018-11-21T00:23:05.941Z,24.13
2018-11-21T00:25:35.761Z,22.10
2018-11-21T00:28:05.667Z,18.60
2018-11-21T00:30:35.507Z,19.90
2018-11-21T00:33:05.121Z,23.60
2018-11-21T00:35:34.828Z,23.10
2018-11-21T00:38:04.433Z,19.70
2018-11-21T00:40:34.154Z,21.20
2018-11-21T00:43:03.814Z,20.10
2018-11-21T00:45:33.486Z,16.90
2018-11-21T00:48:03.339Z,19.27
2018-11-21T00:50:32.943Z,18.70
2018-11-21T00:53:02.627Z,18.73
2018-11-21T00:55:32.209Z,17.97
2018-11-21T00:58:02.289Z,19.87
2018-11-21T01:00:31.921Z,20.67
2018-11-21T01:03:01.554Z,17.30
2018-11-21T01:05:31.162Z,21.90
2018-11-21T01:08:00.826Z,23.63
2018-11-21T01:10:30.471Z,22.20
2018-11-21T01:13:00.085Z,24.23
2018-11-21T01:15:29.958Z,22.57
2018-11-21T01:17:59.527Z,24.23
2018-11-21T01:20:29.126Z,23.97
2018-11-21T01:22:58.844Z,27.73
2018-11-21T01:25:28.586Z,26.87
2018-11-21T01:27:58.245Z,27.30
2018-11-21T01:30:28.019Z,23.10
2018-11-21T01:32:57.672Z,21.27
2018-11-21T01:35:27.301Z,18.53
2018-11-21T01:37:56.825Z,18.17
2018-11-21T01:40:26.500Z,16.03
2018-11-21T01:42:56.249Z,16.10
2018-11-21T01:45:25.963Z,15.27
2018-11-21T01:47:55.624Z,16.70
2018-11-21T01:50:25.180Z,27.87
2018-11-21T01:52:54.807Z,33.60
2018-11-21T01:55:24.324Z,35.97
2018-11-21T01:57:53.975Z,32.77
2018-11-21T02:00:23.551Z,35.07
2018-11-21T02:02:53.205Z,32.53
2018-11-21T02:05:22.805Z,34.37
2018-11-21T02:07:52.689Z,31.90
2018-11-21T02:10:22.332Z,31.40
2018-11-21T02:12:51.974Z,42.30
2018-11-21T02:15:21.614Z,40.80
2018-11-21T02:17:51.366Z,44.00
2018-11-21T02:20:20.990Z,40.70
2018-11-21T02:22:50.617Z,35.23
2018-11-21T02:25:20.277Z,37.37
2018-11-21T02:27:49.933Z,41.47
2018-11-21T02:30:19.686Z,38.60
2018-11-21T02:32:49.402Z,36.47
2018-11-21T02:35:19.031Z,34.90
2018-11-21T02:37:48.690Z,36.07
2018-11-21T02:40:18.413Z,41.23
2018-11-21T02:42:48.064Z,36.37
2018-11-21T02:45:17.670Z,34.63
2018-11-21T02:47:47.389Z,35.47
2018-11-21T02:50:17.012Z,40.80
2018-11-21T02:52:46.618Z,41.60
2018-11-21T02:55:16.175Z,35.80
2018-11-21T02:57:45.973Z,39.53
2018-11-21T03:00:26.377Z,39.90
2018-11-21T03:02:56.089Z,37.77
2018-11-21T03:05:25.663Z,43.47
2018-11-21T03:07:56.618Z,38.93
2018-11-21T03:10:26.766Z,38.87
2018-11-21T03:12:56.743Z,41.40
2018-11-21T03:15:26.423Z,40.60
2018-11-21T03:17:56.203Z,39.83
2018-11-21T03:20:25.820Z,37.80
2018-11-21T03:22:55.453Z,39.90
2018-11-21T03:25:25.335Z,35.63
2018-11-21T03:27:54.989Z,39.50
2018-11-21T03:30:24.700Z,32.10
2018-11-21T03:32:54.477Z,30.30
2018-11-21T03:35:24.266Z,26.00
2018-11-21T03:37:53.991Z,30.53
2018-11-21T03:40:23.651Z,29.33
2018-11-21T03:42:53.292Z,29.17
2018-11-21T03:45:22.880Z,29.10
2018-11-21T03:47:52.475Z,27.10
2018-11-21T03:50:23.910Z,28.33
2018-11-21T03:52:53.535Z,28.43
2018-11-21T03:55:23.108Z,27.80
2018-11-21T03:57:53.034Z,26.90
2018-11-21T04:00:22.690Z,23.87
2018-11-21T04:02:52.519Z,27.07
2018-11-21T04:05:22.175Z,24.67
2018-11-21T04:07:51.845Z,23.77
2018-11-21T04:10:21.481Z,25.20
2018-11-21T04:12:51.151Z,25.50
2018-11-21T04:15:20.841Z,23.80
2018-11-21T04:17:50.668Z,23.63
2018-11-21T04:20:20.383Z,23.43
2018-11-21T04:22:50.225Z,21.50
2018-11-21T04:25:19.858Z,20.43
2018-11-21T04:27:49.411Z,22.30
2018-11-21T04:30:19.071Z,21.77
2018-11-21T04:32:48.663Z,21.07
2018-11-21T04:35:18.282Z,20.30
2018-11-21T04:37:47.954Z,20.40
2018-11-21T04:40:17.871Z,19.90
2018-11-21T04:42:47.524Z,20.87
2018-11-21T04:45:17.075Z,20.30
2018-11-21T04:47:46.820Z,20.73
2018-11-21T04:50:16.408Z,20.23
2018-11-21T04:52:46.023Z,21.43
2018-11-21T04:55:15.762Z,19.80
2018-11-21T04:57:45.775Z,21.57
2018-11-21T05:00:15.679Z,21.07
2018-11-21T05:02:45.534Z,23.43
2018-11-21T05:05:15.258Z,21.77
2018-11-21T05:07:44.941Z,22.23
2018-11-21T05:10:14.603Z,20.50
2018-11-21T05:12:44.209Z,23.23
2018-11-21T05:15:16.326Z,23.90
2018-11-21T05:17:46.079Z,24.20
2018-11-21T05:20:15.680Z,23.93
2018-11-21T05:22:45.276Z,23.17
2018-11-21T05:25:14.970Z,25.20
2018-11-21T05:27:44.553Z,28.87
2018-11-21T05:30:14.375Z,29.00
2018-11-21T05:32:44.255Z,27.20
2018-11-21T05:35:13.849Z,23.40
2018-11-21T05:37:43.514Z,25.30
2018-11-21T05:40:13.173Z,21.57
2018-11-21T05:42:42.779Z,25.73
2018-11-21T05:45:12.663Z,22.80
2018-11-21T05:47:42.328Z,22.53
2018-11-21T05:50:13.314Z,23.77
2018-11-21T05:52:42.916Z,23.40
2018-11-21T05:55:12.555Z,23.17
2018-11-21T05:57:42.098Z,22.87
2018-11-21T06:00:13.448Z,26.60
2018-11-21T06:02:43.119Z,23.33
2018-11-21T06:05:13.201Z,25.63
2018-11-21T06:07:42.836Z,23.90
2018-11-21T06:10:14.045Z,25.90
2018-11-21T06:12:44.279Z,24.97
2018-11-21T06:15:14.012Z,27.70
2018-11-21T06:17:48.033Z,29.93
2018-11-21T06:20:14.629Z,31.73
2018-11-21T06:22:45.726Z,35.03
2018-11-21T06:25:15.428Z,34.77
2018-11-21T06:27:45.147Z,30.50
2018-11-21T06:30:15.410Z,34.53
2018-11-21T06:32:45.273Z,33.13
2018-11-21T06:35:14.886Z,34.93
2018-11-21T06:37:44.467Z,35.10
2018-11-21T06:40:15.496Z,34.50
2018-11-21T06:42:58.507Z,41.83
2018-11-21T06:45:29.354Z,39.03
2018-11-21T06:47:58.944Z,33.80
2018-11-21T06:50:28.610Z,34.47
2018-11-21T06:52:58.929Z,30.90
2018-11-21T06:55:28.708Z,34.30
2018-11-21T06:57:58.354Z,34.80
2018-11-21T07:00:28.021Z,35.10
2018-11-21T07:02:57.985Z,39.60
2018-11-21T07:05:27.752Z,50.57
2018-11-21T07:08:00.622Z,39.47
2018-11-21T07:10:30.918Z,36.83
2018-11-21T07:13:00.625Z,38.57
2018-11-21T07:15:30.248Z,31.27
2018-11-21T07:17:59.914Z,26.23
2018-11-21T07:20:29.589Z,26.00
2018-11-21T07:22:59.332Z,27.33
2018-11-21T07:25:29.068Z,28.67
2018-11-21T07:27:58.707Z,25.17
2018-11-21T07:30:28.434Z,22.67
2018-11-21T07:32:58.118Z,19.20
2018-11-21T07:35:27.751Z,20.47
2018-11-21T07:37:57.452Z,19.53
2018-11-21T07:40:27.044Z,18.43
2018-11-21T07:42:56.622Z,18.07
2018-11-21T07:45:26.270Z,20.70
2018-11-21T07:47:55.905Z,18.80
2018-11-21T07:50:25.575Z,18.83
2018-11-21T07:52:55.267Z,19.37
2018-11-21T07:55:24.877Z,18.80
2018-11-21T07:57:56.134Z,20.30
2018-11-21T08:01:05.420Z,18.90
2018-11-21T08:03:40.339Z,19.40
2018-11-21T08:06:18.367Z,22.30
2018-11-21T08:09:07.068Z,23.93
2018-11-21T08:12:01.590Z,26.30
2018-11-21T08:14:53.231Z,46.23
2018-11-21T08:17:47.631Z,27.90
2018-11-21T08:20:34.683Z,20.13
2018-11-21T08:23:21.713Z,19.63
2018-11-21T08:26:16.778Z,21.13
2018-11-21T08:28:46.428Z,21.57
2018-11-21T08:31:16.150Z,22.07
2018-11-21T08:33:45.795Z,21.87
2018-11-21T08:36:15.458Z,23.33
2018-11-21T08:38:45.121Z,21.17
2018-11-21T08:41:15.131Z,22.87
2018-11-21T08:43:44.809Z,23.43
2018-11-21T08:46:14.443Z,22.30
2018-11-21T08:48:44.088Z,24.67
2018-11-21T08:51:13.923Z,22.10
2018-11-21T08:53:43.618Z,23.20
2018-11-21T08:56:13.563Z,21.53
2018-11-21T08:58:43.135Z,22.47
2018-11-21T09:01:12.753Z,23.50
2018-11-21T09:03:42.604Z,24.67
2018-11-21T09:06:12.279Z,22.70
2018-11-21T09:08:41.857Z,21.80
2018-11-21T09:11:11.979Z,25.00
2018-11-21T09:13:41.584Z,23.60
2018-11-21T09:16:11.202Z,23.67
2018-11-21T09:18:41.244Z,24.77
2018-11-21T09:21:10.818Z,24.47
2018-11-21T09:23:40.565Z,23.57
2018-11-21T09:26:10.433Z,21.10
2018-11-21T09:28:40.093Z,23.63
2018-11-21T09:31:09.730Z,24.03
2018-11-21T09:33:39.313Z,24.10
2018-11-21T09:36:08.975Z,23.60
2018-11-21T09:38:38.964Z,26.60
2018-11-21T09:41:08.673Z,23.73
2018-11-21T09:43:38.280Z,24.57
2018-11-21T09:46:07.924Z,24.97
2018-11-21T09:48:37.565Z,21.00
2018-11-21T09:51:07.315Z,24.13
2018-11-21T09:53:37.125Z,23.17
2018-11-21T09:56:07.003Z,23.40
2018-11-21T09:58:36.631Z,22.60
2018-11-21T10:01:42.568Z,23.80
2018-11-21T10:04:12.328Z,23.83
2018-11-21T10:06:43.799Z,24.37
2018-11-21T10:09:25.036Z,22.70
2018-11-21T10:11:54.830Z,22.67
2018-11-21T10:14:24.429Z,24.10
2018-11-21T10:16:54.071Z,24.37
2018-11-21T10:19:23.746Z,24.77
2018-11-21T10:21:53.426Z,23.20
2018-11-21T10:24:23.056Z,23.40
2018-11-21T10:26:52.990Z,23.17
2018-11-21T10:29:22.890Z,23.57
2018-11-21T10:31:52.516Z,23.90
2018-11-21T10:34:22.175Z,22.40
2018-11-21T10:36:51.815Z,20.93
2018-11-21T10:39:21.483Z,24.90
2018-11-21T10:41:51.195Z,25.47
2018-11-21T10:44:21.014Z,23.10
2018-11-21T10:46:50.746Z,25.57
2018-11-21T10:49:20.466Z,22.60
2018-11-21T10:51:50.167Z,23.30
2018-11-21T10:54:19.918Z,22.73
2018-11-21T10:56:49.524Z,24.50
2018-11-21T10:59:19.395Z,24.00
2018-11-21T11:02:06.994Z,25.20
2018-11-21T11:04:54.431Z,22.00
2018-11-21T11:07:41.769Z,24.50
2018-11-21T11:10:40.823Z,23.53
2018-11-21T11:13:35.392Z,22.77
2018-11-21T11:16:21.392Z,24.37
2018-11-21T11:19:08.779Z,26.27
2018-11-21T11:22:06.585Z,24.50
2018-11-21T11:24:53.763Z,23.80
2018-11-21T11:27:49.891Z,21.33
2018-11-21T11:30:53.922Z,21.90
2018-11-21T11:33:38.360Z,22.43
2018-11-21T11:36:39.160Z,24.43
2018-11-21T11:39:43.924Z,24.17
2018-11-21T11:42:29.906Z,22.40
2018-11-21T11:45:17.131Z,22.73
2018-11-21T11:48:04.728Z,25.03
2018-11-21T11:50:48.152Z,20.47
2018-11-21T11:53:36.988Z,23.23
2018-11-21T11:56:28.439Z,21.40
2018-11-21T11:59:17.327Z,21.50
2018-11-21T12:02:13.159Z,20.60
2018-11-21T12:05:04.450Z,20.10
2018-11-21T12:07:57.277Z,20.30
2018-11-21T12:10:45.997Z,21.70
2018-11-21T12:13:33.492Z,21.07
2018-11-21T12:16:29.011Z,21.90
2018-11-21T12:19:10.701Z,21.13
2018-11-21T12:22:05.267Z,20.10
2018-11-21T12:24:57.711Z,21.17
2018-11-21T12:27:45.048Z,21.77
2018-11-21T12:30:24.330Z,23.33
2018-11-21T12:33:30.349Z,23.73
2018-11-21T12:36:18.074Z,22.50
2018-11-21T12:39:18.509Z,22.33
2018-11-21T12:42:05.830Z,19.83
2018-11-21T12:45:06.680Z,22.00
2018-11-21T12:48:13.957Z,20.60
2018-11-21T12:50:57.292Z,21.30
2018-11-21T12:54:01.018Z,21.10
2018-11-21T12:56:49.937Z,20.87
2018-11-21T12:59:41.977Z,22.37
2018-11-21T13:02:34.754Z,19.90
2018-11-21T13:05:19.063Z,20.83
2018-11-21T13:08:10.700Z,21.47
2018-11-21T13:10:58.105Z,20.90
2018-11-21T13:13:58.807Z,21.60
2018-11-21T13:16:38.096Z,22.63
2018-11-21T13:19:25.749Z,22.40
2018-11-21T13:22:02.361Z,22.20
2018-11-21T13:24:48.081Z,22.03
2018-11-21T13:27:42.537Z,20.70
2018-11-21T13:30:50.375Z,21.97
2018-11-21T13:33:44.880Z,21.30
2018-11-21T13:36:48.767Z,20.70
2018-11-21T13:39:55.765Z,21.27
2018-11-21T13:42:50.273Z,22.50
2018-11-21T13:45:54.090Z,22.00
2018-11-21T13:48:37.588Z,20.97
2018-11-21T13:51:44.374Z,22.70
2018-11-21T13:54:35.887Z,20.00
2018-11-21T13:57:05.711Z,20.40
2018-11-21T13:59:35.512Z,19.50
2018-11-21T14:02:05.491Z,23.70
2018-11-21T14:04:35.233Z,21.27
2018-11-21T14:07:04.925Z,20.73
2018-11-21T14:09:34.603Z,22.20
2018-11-21T14:12:04.852Z,20.90
2018-11-21T14:14:34.646Z,22.10
2018-11-21T14:17:04.276Z,23.67
2018-11-21T14:19:34.222Z,22.27
2018-11-21T14:22:03.930Z,22.67
2018-11-21T14:24:33.584Z,22.50
2018-11-21T14:27:03.317Z,21.50
2018-11-21T14:29:33.052Z,20.90
2018-11-21T14:32:02.800Z,19.97
2018-11-21T14:34:32.491Z,21.53
2018-11-21T14:37:02.418Z,20.53
2018-11-21T14:39:31.983Z,21.10
2018-11-21T14:42:01.639Z,22.23
2018-11-21T14:44:31.351Z,21.57
2018-11-21T14:47:01.863Z,20.00
2018-11-21T14:49:31.820Z,20.07
2018-11-21T14:52:01.829Z,23.00
2018-11-21T14:54:31.458Z,20.70
2018-11-21T14:57:02.017Z,20.33
2018-11-21T14:59:31.704Z,19.40
2018-11-21T15:02:01.590Z,18.97
2018-11-21T15:04:31.603Z,19.70
2018-11-21T15:07:01.243Z,20.87
2018-11-21T15:09:30.913Z,22.03
2018-11-21T15:12:00.569Z,20.73
2018-11-21T15:14:30.199Z,20.93
2018-11-21T15:16:59.927Z,22.30
2018-11-21T15:19:29.619Z,21.40
2018-11-21T15:21:59.189Z,19.90
2018-11-21T15:24:28.782Z,20.43
2018-11-21T15:26:58.448Z,20.67
2018-11-21T15:29:28.106Z,21.27
2018-11-21T15:31:57.792Z,20.43
2018-11-21T15:34:27.599Z,19.97
2018-11-21T15:36:57.290Z,20.23
2018-11-21T15:39:27.075Z,20.37
2018-11-21T15:41:56.722Z,21.70
2018-11-21T15:44:26.381Z,20.47
2018-11-21T15:46:56.111Z,20.70
2018-11-21T15:49:25.964Z,21.63
2018-11-21T15:52:01.283Z,21.43
2018-11-21T15:54:25.300Z,23.83
2018-11-21T15:56:54.941Z,22.10
2018-11-21T15:59:24.549Z,22.27
2018-11-21T16:01:54.270Z,23.53
2018-11-21T16:04:24.272Z,28.40
